sensor_id;sensor_type;location;lat;lon;timestamp;temperature;humidity
31747;DHT22;18319;48.974;8.462;2023-09-18T00:00:26;19.90;99.90
31747;DHT22;18319;48.974;8.462;2023-09-18T00:02:53;19.90;99.90
31747;DHT22;18319;48.974;8.462;2023-09-18T00:05:19;19.70;99.90
31747;DHT22;18319;48.974;8.462;2023-09-18T00:07:46;19.60;99.90
31747;DHT22;18319;48.974;8.462;2023-09-18T00:10:13;19.60;99.90
31747;DHT22;18319;48.974;8.462;2023-09-18T00:12:40;19.70;99.90
31747;DHT22;18319;48.974;8.462;2023-09-18T00:15:07;19.60;99.90
31747;DHT22;18319;48.974;8.462;2023-09-18T00:17:36;19.60;99.90
31747;DHT22;18319;48.974;8.462;2023-09-18T00:20:04;19.50;99.90
31747;DHT22;18319;48.974;8.462;2023-09-18T00:22:32;19.60;99.90
31747;DHT22;18319;48.974;8.462;2023-09-18T00:24:59;19.60;99.90
31747;DHT22;18319;48.974;8.462;2023-09-18T00:27:26;19.60;99.90
31747;DHT22;18319;48.974;8.462;2023-09-18T00:29:53;19.60;99.90
31747;DHT22;18319;48.974;8.462;2023-09-18T00:32:20;19.70;99.90
31747;DHT22;18319;48.974;8.462;2023-09-18T00:34:48;19.70;99.90
31747;DHT22;18319;48.974;8.462;2023-09-18T00:37:15;19.60;99.90
31747;DHT22;18319;48.974;8.462;2023-09-18T00:39:42;19.70;99.90
31747;DHT22;18319;48.974;8.462;2023-09-18T00:42:09;19.70;99.90
31747;DHT22;18319;48.974;8.462;2023-09-18T00:44:39;19.70;99.90
31747;DHT22;18319;48.974;8.462;2023-09-18T00:47:06;19.80;99.90
31747;DHT22;18319;48.974;8.462;2023-09-18T00:49:34;19.90;99.90
31747;DHT22;18319;48.974;8.462;2023-09-18T00:52:03;19.80;99.90
31747;DHT22;18319;48.974;8.462;2023-09-18T00:54:31;19.70;99.90
31747;DHT22;18319;48.974;8.462;2023-09-18T00:56:59;19.80;99.90
31747;DHT22;18319;48.974;8.462;2023-09-18T00:59:26;19.70;99.90
31747;DHT22;18319;48.974;8.462;2023-09-18T01:01:53;19.70;99.90
31747;DHT22;18319;48.974;8.462;2023-09-18T01:04:21;19.70;99.90
31747;DHT22;18319;48.974;8.462;2023-09-18T01:06:50;19.90;99.90
31747;DHT22;18319;48.974;8.462;2023-09-18T01:09:20;19.90;99.90
31747;DHT22;18319;48.974;8.462;2023-09-18T01:11:50;20.00;99.90
31747;DHT22;18319;48.974;8.462;2023-09-18T01:14:23;20.00;99.90
31747;DHT22;18319;48.974;8.462;2023-09-18T01:16:55;20.00;99.90
31747;DHT22;18319;48.974;8.462;2023-09-18T01:19:39;20.00;99.90
31747;DHT22;18319;48.974;8.462;2023-09-18T01:22:07;20.10;99.90
31747;DHT22;18319;48.974;8.462;2023-09-18T01:24:37;20.20;99.90
31747;DHT22;18319;48.974;8.462;2023-09-18T01:27:07;20.30;99.90
31747;DHT22;18319;48.974;8.462;2023-09-18T01:29:34;20.40;99.90
31747;DHT22;18319;48.974;8.462;2023-09-18T01:32:01;20.40;99.90
31747;DHT22;18319;48.974;8.462;2023-09-18T01:34:31;20.50;99.90
31747;DHT22;18319;48.974;8.462;2023-09-18T01:36:59;20.50;99.90
31747;DHT22;18319;48.974;8.462;2023-09-18T01:39:27;20.60;99.90
31747;DHT22;18319;48.974;8.462;2023-09-18T01:41:58;20.60;99.90
31747;DHT22;18319;48.974;8.462;2023-09-18T01:44:25;20.60;99.90
31747;DHT22;18319;48.974;8.462;2023-09-18T01:46:52;20.60;99.90
31747;DHT22;18319;48.974;8.462;2023-09-18T01:49:27;20.60;99.90
31747;DHT22;18319;48.974;8.462;2023-09-18T01:51:53;20.60;99.90
31747;DHT22;18319;48.974;8.462;2023-09-18T01:54:20;20.70;99.90
31747;DHT22;18319;48.974;8.462;2023-09-18T01:56:47;20.80;99.90
31747;DHT22;18319;48.974;8.462;2023-09-18T01:59:15;20.80;99.90
31747;DHT22;18319;48.974;8.462;2023-09-18T02:01:42;21.00;99.90
31747;DHT22;18319;48.974;8.462;2023-09-18T02:04:08;20.90;99.90
31747;DHT22;18319;48.974;8.462;2023-09-18T02:06:35;20.80;99.90
31747;DHT22;18319;48.974;8.462;2023-09-18T02:09:02;20.70;99.90
31747;DHT22;18319;48.974;8.462;2023-09-18T02:11:29;20.60;99.90
31747;DHT22;18319;48.974;8.462;2023-09-18T02:13:56;20.60;99.90
31747;DHT22;18319;48.974;8.462;2023-09-18T02:16:24;20.50;99.90
31747;DHT22;18319;48.974;8.462;2023-09-18T02:18:54;20.40;99.90
31747;DHT22;18319;48.974;8.462;2023-09-18T02:21:22;20.40;99.90
31747;DHT22;18319;48.974;8.462;2023-09-18T02:23:49;20.30;99.90
31747;DHT22;18319;48.974;8.462;2023-09-18T02:26:16;20.20;99.90
31747;DHT22;18319;48.974;8.462;2023-09-18T02:28:43;20.10;99.90
31747;DHT22;18319;48.974;8.462;2023-09-18T02:31:10;20.10;99.90
31747;DHT22;18319;48.974;8.462;2023-09-18T02:33:39;20.10;99.90
31747;DHT22;18319;48.974;8.462;2023-09-18T02:36:06;20.00;99.90
31747;DHT22;18319;48.974;8.462;2023-09-18T02:38:33;20.00;99.90
31747;DHT22;18319;48.974;8.462;2023-09-18T02:41:00;19.90;99.90
31747;DHT22;18319;48.974;8.462;2023-09-18T02:43:27;19.90;99.90
31747;DHT22;18319;48.974;8.462;2023-09-18T02:45:54;19.90;99.90
31747;DHT22;18319;48.974;8.462;2023-09-18T02:48:21;19.90;99.90
31747;DHT22;18319;48.974;8.462;2023-09-18T02:50:49;20.00;99.90
31747;DHT22;18319;48.974;8.462;2023-09-18T02:53:17;20.00;99.90
31747;DHT22;18319;48.974;8.462;2023-09-18T02:55:45;19.90;99.90
31747;DHT22;18319;48.974;8.462;2023-09-18T02:58:12;19.80;99.90
31747;DHT22;18319;48.974;8.462;2023-09-18T03:00:41;19.80;99.90
31747;DHT22;18319;48.974;8.462;2023-09-18T03:03:08;19.70;99.90
31747;DHT22;18319;48.974;8.462;2023-09-18T03:05:36;19.60;99.90
31747;DHT22;18319;48.974;8.462;2023-09-18T03:08:05;19.60;99.90
31747;DHT22;18319;48.974;8.462;2023-09-18T03:10:33;19.60;99.90
31747;DHT22;18319;48.974;8.462;2023-09-18T03:13:00;19.60;99.90
31747;DHT22;18319;48.974;8.462;2023-09-18T03:15:27;19.50;99.90
31747;DHT22;18319;48.974;8.462;2023-09-18T03:17:53;19.50;99.90
31747;DHT22;18319;48.974;8.462;2023-09-18T03:20:22;19.50;99.90
31747;DHT22;18319;48.974;8.462;2023-09-18T03:22:49;19.50;99.90
31747;DHT22;18319;48.974;8.462;2023-09-18T03:25:17;19.60;99.90
31747;DHT22;18319;48.974;8.462;2023-09-18T03:27:44;19.60;99.90
31747;DHT22;18319;48.974;8.462;2023-09-18T03:30:11;19.60;99.90
31747;DHT22;18319;48.974;8.462;2023-09-18T03:32:41;19.80;99.90
31747;DHT22;18319;48.974;8.462;2023-09-18T03:35:08;19.80;99.90
31747;DHT22;18319;48.974;8.462;2023-09-18T03:37:40;19.90;99.90
31747;DHT22;18319;48.974;8.462;2023-09-18T03:40:08;20.00;99.90
31747;DHT22;18319;48.974;8.462;2023-09-18T03:42:37;20.00;99.90
31747;DHT22;18319;48.974;8.462;2023-09-18T03:45:05;20.00;99.90
31747;DHT22;18319;48.974;8.462;2023-09-18T03:47:34;20.00;99.90
31747;DHT22;18319;48.974;8.462;2023-09-18T03:50:01;20.00;99.90
31747;DHT22;18319;48.974;8.462;2023-09-18T03:52:28;19.90;99.90
31747;DHT22;18319;48.974;8.462;2023-09-18T03:54:54;19.40;99.90
31747;DHT22;18319;48.974;8.462;2023-09-18T03:57:21;18.80;99.90
31747;DHT22;18319;48.974;8.462;2023-09-18T03:59:49;18.40;99.90
31747;DHT22;18319;48.974;8.462;2023-09-18T04:02:16;18.20;99.90
31747;DHT22;18319;48.974;8.462;2023-09-18T04:04:43;18.10;99.90
31747;DHT22;18319;48.974;8.462;2023-09-18T04:07:09;18.00;99.90
31747;DHT22;18319;48.974;8.462;2023-09-18T04:09:37;17.90;99.90
31747;DHT22;18319;48.974;8.462;2023-09-18T04:12:05;17.90;99.90
31747;DHT22;18319;48.974;8.462;2023-09-18T04:14:33;17.80;99.90
31747;DHT22;18319;48.974;8.462;2023-09-18T04:17:01;17.80;99.90
31747;DHT22;18319;48.974;8.462;2023-09-18T04:19:28;17.80;99.90
31747;DHT22;18319;48.974;8.462;2023-09-18T04:21:55;17.80;99.90
31747;DHT22;18319;48.974;8.462;2023-09-18T04:24:23;17.80;99.90
31747;DHT22;18319;48.974;8.462;2023-09-18T04:26:50;17.80;99.90
31747;DHT22;18319;48.974;8.462;2023-09-18T04:29:17;17.80;99.90
31747;DHT22;18319;48.974;8.462;2023-09-18T04:31:44;17.80;99.90
31747;DHT22;18319;48.974;8.462;2023-09-18T04:34:12;17.70;99.90
31747;DHT22;18319;48.974;8.462;2023-09-18T04:36:39;17.70;99.90
31747;DHT22;18319;48.974;8.462;2023-09-18T04:39:07;17.70;99.90
31747;DHT22;18319;48.974;8.462;2023-09-18T04:41:35;17.70;99.90
31747;DHT22;18319;48.974;8.462;2023-09-18T04:44:01;17.70;99.90
31747;DHT22;18319;48.974;8.462;2023-09-18T04:46:30;17.70;99.90
31747;DHT22;18319;48.974;8.462;2023-09-18T04:48:57;17.70;99.90
31747;DHT22;18319;48.974;8.462;2023-09-18T04:51:25;17.60;99.90
31747;DHT22;18319;48.974;8.462;2023-09-18T04:53:52;17.60;99.90
31747;DHT22;18319;48.974;8.462;2023-09-18T04:56:20;17.60;99.90
31747;DHT22;18319;48.974;8.462;2023-09-18T04:58:47;17.60;99.90
31747;DHT22;18319;48.974;8.462;2023-09-18T05:01:14;17.60;99.90
31747;DHT22;18319;48.974;8.462;2023-09-18T05:03:41;17.60;99.90
31747;DHT22;18319;48.974;8.462;2023-09-18T05:06:07;17.60;99.90
31747;DHT22;18319;48.974;8.462;2023-09-18T05:08:35;17.60;99.90
31747;DHT22;18319;48.974;8.462;2023-09-18T05:11:03;17.50;99.90
31747;DHT22;18319;48.974;8.462;2023-09-18T05:13:30;17.50;99.90
31747;DHT22;18319;48.974;8.462;2023-09-18T05:15:57;17.50;99.90
31747;DHT22;18319;48.974;8.462;2023-09-18T05:18:26;17.40;99.90
31747;DHT22;18319;48.974;8.462;2023-09-18T05:20:53;17.50;99.90
31747;DHT22;18319;48.974;8.462;2023-09-18T05:23:19;17.40;99.90
31747;DHT22;18319;48.974;8.462;2023-09-18T05:25:47;17.50;99.90
31747;DHT22;18319;48.974;8.462;2023-09-18T05:28:14;17.40;99.90
31747;DHT22;18319;48.974;8.462;2023-09-18T05:30:41;17.50;99.90
31747;DHT22;18319;48.974;8.462;2023-09-18T05:33:08;17.40;99.90
31747;DHT22;18319;48.974;8.462;2023-09-18T05:35:36;17.50;99.90
31747;DHT22;18319;48.974;8.462;2023-09-18T05:38:04;17.50;99.90
31747;DHT22;18319;48.974;8.462;2023-09-18T05:40:31;17.50;99.90
31747;DHT22;18319;48.974;8.462;2023-09-18T05:42:59;17.50;99.90
31747;DHT22;18319;48.974;8.462;2023-09-18T05:45:26;17.40;99.90
31747;DHT22;18319;48.974;8.462;2023-09-18T05:47:54;17.60;99.90
31747;DHT22;18319;48.974;8.462;2023-09-18T05:50:27;17.60;99.90
31747;DHT22;18319;48.974;8.462;2023-09-18T05:52:55;17.60;99.90
31747;DHT22;18319;48.974;8.462;2023-09-18T05:55:25;17.70;99.90
31747;DHT22;18319;48.974;8.462;2023-09-18T05:57:51;17.60;99.90
31747;DHT22;18319;48.974;8.462;2023-09-18T06:00:19;17.80;99.90
31747;DHT22;18319;48.974;8.462;2023-09-18T06:02:47;17.60;99.90
31747;DHT22;18319;48.974;8.462;2023-09-18T06:05:14;17.70;99.90
31747;DHT22;18319;48.974;8.462;2023-09-18T06:07:42;17.70;99.90
31747;DHT22;18319;48.974;8.462;2023-09-18T06:10:10;17.80;99.90
31747;DHT22;18319;48.974;8.462;2023-09-18T06:12:38;17.80;99.90
31747;DHT22;18319;48.974;8.462;2023-09-18T06:15:06;17.90;99.90
31747;DHT22;18319;48.974;8.462;2023-09-18T06:17:37;17.90;99.90
31747;DHT22;18319;48.974;8.462;2023-09-18T06:20:06;17.80;99.90
31747;DHT22;18319;48.974;8.462;2023-09-18T06:22:36;17.90;99.90
31747;DHT22;18319;48.974;8.462;2023-09-18T06:25:04;17.90;99.90
31747;DHT22;18319;48.974;8.462;2023-09-18T06:27:31;17.90;99.90
31747;DHT22;18319;48.974;8.462;2023-09-18T06:29:59;17.90;99.90
31747;DHT22;18319;48.974;8.462;2023-09-18T06:32:26;18.00;99.90
31747;DHT22;18319;48.974;8.462;2023-09-18T06:34:54;18.00;99.90
31747;DHT22;18319;48.974;8.462;2023-09-18T06:37:23;18.00;99.90
31747;DHT22;18319;48.974;8.462;2023-09-18T06:39:50;18.00;99.90
31747;DHT22;18319;48.974;8.462;2023-09-18T06:42:17;18.00;99.90
31747;DHT22;18319;48.974;8.462;2023-09-18T06:44:43;18.00;99.90
31747;DHT22;18319;48.974;8.462;2023-09-18T06:47:10;18.10;99.90
31747;DHT22;18319;48.974;8.462;2023-09-18T06:49:37;18.10;99.90
31747;DHT22;18319;48.974;8.462;2023-09-18T06:52:05;18.10;99.90
31747;DHT22;18319;48.974;8.462;2023-09-18T06:54:32;18.10;99.90
31747;DHT22;18319;48.974;8.462;2023-09-18T06:56:59;18.00;99.90
31747;DHT22;18319;48.974;8.462;2023-09-18T06:59:25;18.00;99.90
31747;DHT22;18319;48.974;8.462;2023-09-18T07:01:52;17.90;99.90
31747;DHT22;18319;48.974;8.462;2023-09-18T07:04:19;18.00;99.90
31747;DHT22;18319;48.974;8.462;2023-09-18T07:06:46;18.00;99.90
31747;DHT22;18319;48.974;8.462;2023-09-18T07:09:15;18.00;99.90
31747;DHT22;18319;48.974;8.462;2023-09-18T07:11:43;18.10;99.90
31747;DHT22;18319;48.974;8.462;2023-09-18T07:14:10;18.10;99.90
31747;DHT22;18319;48.974;8.462;2023-09-18T07:16:37;18.10;99.90
31747;DHT22;18319;48.974;8.462;2023-09-18T07:19:04;18.10;99.90
31747;DHT22;18319;48.974;8.462;2023-09-18T07:21:31;18.10;99.90
31747;DHT22;18319;48.974;8.462;2023-09-18T07:23:59;18.10;99.90
31747;DHT22;18319;48.974;8.462;2023-09-18T07:26:27;18.10;99.90
31747;DHT22;18319;48.974;8.462;2023-09-18T07:28:53;18.10;99.90
31747;DHT22;18319;48.974;8.462;2023-09-18T07:31:22;18.20;99.90
31747;DHT22;18319;48.974;8.462;2023-09-18T07:33:52;18.10;99.90
31747;DHT22;18319;48.974;8.462;2023-09-18T07:36:19;18.10;99.90
31747;DHT22;18319;48.974;8.462;2023-09-18T07:38:48;18.20;99.90
31747;DHT22;18319;48.974;8.462;2023-09-18T07:41:15;18.20;99.90
31747;DHT22;18319;48.974;8.462;2023-09-18T07:43:43;18.20;99.90
31747;DHT22;18319;48.974;8.462;2023-09-18T07:46:10;18.20;99.90
31747;DHT22;18319;48.974;8.462;2023-09-18T07:48:36;18.30;99.90
31747;DHT22;18319;48.974;8.462;2023-09-18T07:51:03;18.30;99.90
31747;DHT22;18319;48.974;8.462;2023-09-18T07:53:30;18.30;99.90
31747;DHT22;18319;48.974;8.462;2023-09-18T07:55:58;18.30;99.90
31747;DHT22;18319;48.974;8.462;2023-09-18T07:58:27;18.40;99.90
31747;DHT22;18319;48.974;8.462;2023-09-18T08:00:55;18.50;99.90
31747;DHT22;18319;48.974;8.462;2023-09-18T08:03:22;18.50;99.90
31747;DHT22;18319;48.974;8.462;2023-09-18T08:05:51;18.60;99.90
31747;DHT22;18319;48.974;8.462;2023-09-18T08:08:19;18.60;99.90
31747;DHT22;18319;48.974;8.462;2023-09-18T08:10:46;18.70;99.90
31747;DHT22;18319;48.974;8.462;2023-09-18T08:13:13;18.60;99.90
31747;DHT22;18319;48.974;8.462;2023-09-18T08:15:40;18.70;99.90
31747;DHT22;18319;48.974;8.462;2023-09-18T08:18:08;18.80;99.90
31747;DHT22;18319;48.974;8.462;2023-09-18T08:20:36;18.80;99.90
31747;DHT22;18319;48.974;8.462;2023-09-18T08:23:03;18.70;99.90
31747;DHT22;18319;48.974;8.462;2023-09-18T08:25:34;18.70;99.90
31747;DHT22;18319;48.974;8.462;2023-09-18T08:28:03;18.70;99.90
31747;DHT22;18319;48.974;8.462;2023-09-18T08:30:32;18.70;99.90
31747;DHT22;18319;48.974;8.462;2023-09-18T08:33:07;18.70;99.90
31747;DHT22;18319;48.974;8.462;2023-09-18T08:35:34;18.70;99.90
31747;DHT22;18319;48.974;8.462;2023-09-18T08:38:00;18.60;99.90
31747;DHT22;18319;48.974;8.462;2023-09-18T08:40:28;18.60;99.90
31747;DHT22;18319;48.974;8.462;2023-09-18T08:42:56;18.50;99.90
31747;DHT22;18319;48.974;8.462;2023-09-18T08:45:31;18.50;99.90
31747;DHT22;18319;48.974;8.462;2023-09-18T08:48:01;18.60;99.90
31747;DHT22;18319;48.974;8.462;2023-09-18T08:50:30;18.60;99.90
31747;DHT22;18319;48.974;8.462;2023-09-18T08:52:57;18.60;99.90
31747;DHT22;18319;48.974;8.462;2023-09-18T08:55:25;18.60;99.90
31747;DHT22;18319;48.974;8.462;2023-09-18T08:57:52;18.70;99.90
31747;DHT22;18319;48.974;8.462;2023-09-18T09:00:19;18.80;99.90
31747;DHT22;18319;48.974;8.462;2023-09-18T09:02:46;18.90;99.90
31747;DHT22;18319;48.974;8.462;2023-09-18T09:05:14;19.10;99.90
31747;DHT22;18319;48.974;8.462;2023-09-18T09:07:42;19.10;99.90
31747;DHT22;18319;48.974;8.462;2023-09-18T09:10:09;19.20;99.90
31747;DHT22;18319;48.974;8.462;2023-09-18T09:12:51;19.20;99.90
31747;DHT22;18319;48.974;8.462;2023-09-18T09:15:19;19.10;99.90
31747;DHT22;18319;48.974;8.462;2023-09-18T09:17:46;19.10;99.90
31747;DHT22;18319;48.974;8.462;2023-09-18T09:20:14;19.00;99.90
31747;DHT22;18319;48.974;8.462;2023-09-18T09:22:42;19.10;99.90
31747;DHT22;18319;48.974;8.462;2023-09-18T09:25:25;19.10;99.90
31747;DHT22;18319;48.974;8.462;2023-09-18T09:27:57;19.10;99.90
31747;DHT22;18319;48.974;8.462;2023-09-18T09:30:26;19.10;99.90
31747;DHT22;18319;48.974;8.462;2023-09-18T09:32:54;19.20;99.90
31747;DHT22;18319;48.974;8.462;2023-09-18T09:35:22;19.20;99.90
31747;DHT22;18319;48.974;8.462;2023-09-18T09:37:51;19.30;99.90
31747;DHT22;18319;48.974;8.462;2023-09-18T09:40:19;19.30;99.90
31747;DHT22;18319;48.974;8.462;2023-09-18T09:42:46;19.40;99.90
31747;DHT22;18319;48.974;8.462;2023-09-18T09:45:15;19.40;99.90
31747;DHT22;18319;48.974;8.462;2023-09-18T09:47:42;19.40;99.90
31747;DHT22;18319;48.974;8.462;2023-09-18T09:50:11;19.40;99.90
31747;DHT22;18319;48.974;8.462;2023-09-18T09:52:43;19.40;99.90
31747;DHT22;18319;48.974;8.462;2023-09-18T09:55:23;19.50;99.90
31747;DHT22;18319;48.974;8.462;2023-09-18T09:57:52;19.60;99.90
31747;DHT22;18319;48.974;8.462;2023-09-18T10:00:19;19.60;99.90
31747;DHT22;18319;48.974;8.462;2023-09-18T10:03:00;19.60;99.90
31747;DHT22;18319;48.974;8.462;2023-09-18T10:05:30;19.80;99.90
31747;DHT22;18319;48.974;8.462;2023-09-18T10:08:02;19.80;99.90
31747;DHT22;18319;48.974;8.462;2023-09-18T10:10:32;19.80;99.90
31747;DHT22;18319;48.974;8.462;2023-09-18T10:13:08;19.90;99.90
31747;DHT22;18319;48.974;8.462;2023-09-18T10:15:37;20.00;99.90
31747;DHT22;18319;48.974;8.462;2023-09-18T10:18:17;20.00;99.90
31747;DHT22;18319;48.974;8.462;2023-09-18T10:20:46;20.10;99.90
31747;DHT22;18319;48.974;8.462;2023-09-18T10:23:24;19.90;99.90
31747;DHT22;18319;48.974;8.462;2023-09-18T10:25:59;19.90;99.90
31747;DHT22;18319;48.974;8.462;2023-09-18T10:28:28;19.80;99.90
31747;DHT22;18319;48.974;8.462;2023-09-18T10:30:57;19.80;99.90
31747;DHT22;18319;48.974;8.462;2023-09-18T10:33:25;19.90;99.90
31747;DHT22;18319;48.974;8.462;2023-09-18T10:35:53;20.10;99.90
31747;DHT22;18319;48.974;8.462;2023-09-18T10:38:20;20.30;99.90
31747;DHT22;18319;48.974;8.462;2023-09-18T10:40:47;20.50;99.90
31747;DHT22;18319;48.974;8.462;2023-09-18T10:43:17;20.60;99.90
31747;DHT22;18319;48.974;8.462;2023-09-18T10:45:44;20.60;99.90
31747;DHT22;18319;48.974;8.462;2023-09-18T10:48:12;20.70;99.90
31747;DHT22;18319;48.974;8.462;2023-09-18T10:50:41;20.70;99.90
31747;DHT22;18319;48.974;8.462;2023-09-18T10:53:09;20.80;99.90
31747;DHT22;18319;48.974;8.462;2023-09-18T10:55:36;20.70;99.90
31747;DHT22;18319;48.974;8.462;2023-09-18T10:58:04;20.80;99.90
31747;DHT22;18319;48.974;8.462;2023-09-18T11:00:32;20.90;99.90
31747;DHT22;18319;48.974;8.462;2023-09-18T11:03:13;21.10;99.90
31747;DHT22;18319;48.974;8.462;2023-09-18T11:05:40;21.20;99.90
31747;DHT22;18319;48.974;8.462;2023-09-18T11:08:27;21.10;99.90
31747;DHT22;18319;48.974;8.462;2023-09-18T11:11:02;21.20;99.90
31747;DHT22;18319;48.974;8.462;2023-09-18T11:13:37;21.40;99.90
31747;DHT22;18319;48.974;8.462;2023-09-18T11:16:17;21.40;99.90
31747;DHT22;18319;48.974;8.462;2023-09-18T11:18:47;21.50;99.90
31747;DHT22;18319;48.974;8.462;2023-09-18T11:21:15;21.60;99.90
31747;DHT22;18319;48.974;8.462;2023-09-18T11:23:43;21.60;99.90
31747;DHT22;18319;48.974;8.462;2023-09-18T11:26:10;21.70;99.90
31747;DHT22;18319;48.974;8.462;2023-09-18T11:28:38;21.90;99.90
31747;DHT22;18319;48.974;8.462;2023-09-18T11:31:05;21.90;99.90
31747;DHT22;18319;48.974;8.462;2023-09-18T11:33:36;22.10;99.90
31747;DHT22;18319;48.974;8.462;2023-09-18T11:36:07;22.10;99.90
31747;DHT22;18319;48.974;8.462;2023-09-18T11:38:51;22.40;99.90
31747;DHT22;18319;48.974;8.462;2023-09-18T11:41:25;22.70;99.90
31747;DHT22;18319;48.974;8.462;2023-09-18T11:43:53;23.10;99.90
31747;DHT22;18319;48.974;8.462;2023-09-18T11:46:41;22.80;99.90
31747;DHT22;18319;48.974;8.462;2023-09-18T11:49:13;23.10;99.90
31747;DHT22;18319;48.974;8.462;2023-09-18T11:51:40;23.00;99.90
31747;DHT22;18319;48.974;8.462;2023-09-18T11:54:08;22.80;99.90
31747;DHT22;18319;48.974;8.462;2023-09-18T11:56:36;22.70;99.90
31747;DHT22;18319;48.974;8.462;2023-09-18T11:59:05;22.90;99.90
31747;DHT22;18319;48.974;8.462;2023-09-18T12:01:32;22.90;99.90
31747;DHT22;18319;48.974;8.462;2023-09-18T12:04:02;22.80;99.90
31747;DHT22;18319;48.974;8.462;2023-09-18T12:06:34;23.10;99.90
31747;DHT22;18319;48.974;8.462;2023-09-18T12:09:01;23.20;99.90
31747;DHT22;18319;48.974;8.462;2023-09-18T12:11:29;23.20;99.90
31747;DHT22;18319;48.974;8.462;2023-09-18T12:13:56;23.10;99.90
31747;DHT22;18319;48.974;8.462;2023-09-18T12:16:23;23.30;99.90
31747;DHT22;18319;48.974;8.462;2023-09-18T12:18:51;23.30;99.90
31747;DHT22;18319;48.974;8.462;2023-09-18T12:21:17;23.20;99.90
31747;DHT22;18319;48.974;8.462;2023-09-18T12:23:46;23.30;99.90
31747;DHT22;18319;48.974;8.462;2023-09-18T12:26:15;23.30;99.90
31747;DHT22;18319;48.974;8.462;2023-09-18T12:28:43;23.40;99.90
31747;DHT22;18319;48.974;8.462;2023-09-18T12:31:11;23.60;99.90
31747;DHT22;18319;48.974;8.462;2023-09-18T12:33:39;23.40;99.90
31747;DHT22;18319;48.974;8.462;2023-09-18T12:36:07;23.30;99.90
31747;DHT22;18319;48.974;8.462;2023-09-18T12:38:35;23.10;99.90
31747;DHT22;18319;48.974;8.462;2023-09-18T12:41:04;23.20;99.90
31747;DHT22;18319;48.974;8.462;2023-09-18T12:43:36;23.30;99.90
31747;DHT22;18319;48.974;8.462;2023-09-18T12:46:05;23.70;99.90
31747;DHT22;18319;48.974;8.462;2023-09-18T12:48:32;23.70;99.90
31747;DHT22;18319;48.974;8.462;2023-09-18T12:51:05;23.80;99.90
31747;DHT22;18319;48.974;8.462;2023-09-18T12:53:32;23.80;99.90
31747;DHT22;18319;48.974;8.462;2023-09-18T12:56:08;23.70;99.90
31747;DHT22;18319;48.974;8.462;2023-09-18T12:58:35;23.60;99.90
31747;DHT22;18319;48.974;8.462;2023-09-18T13:01:07;23.40;99.90
31747;DHT22;18319;48.974;8.462;2023-09-18T13:03:36;23.70;99.90
31747;DHT22;18319;48.974;8.462;2023-09-18T13:06:11;24.10;99.90
31747;DHT22;18319;48.974;8.462;2023-09-18T13:08:39;24.20;99.90
31747;DHT22;18319;48.974;8.462;2023-09-18T13:11:07;24.50;99.90
31747;DHT22;18319;48.974;8.462;2023-09-18T13:13:34;24.70;99.90
31747;DHT22;18319;48.974;8.462;2023-09-18T13:16:06;24.90;99.90
31747;DHT22;18319;48.974;8.462;2023-09-18T13:18:34;24.50;99.90
31747;DHT22;18319;48.974;8.462;2023-09-18T13:21:09;24.40;99.90
31747;DHT22;18319;48.974;8.462;2023-09-18T13:23:36;24.20;99.90
31747;DHT22;18319;48.974;8.462;2023-09-18T13:26:04;24.20;99.90
31747;DHT22;18319;48.974;8.462;2023-09-18T13:28:32;24.30;99.90
31747;DHT22;18319;48.974;8.462;2023-09-18T13:31:01;24.00;99.90
31747;DHT22;18319;48.974;8.462;2023-09-18T13:33:30;23.90;99.90
31747;DHT22;18319;48.974;8.462;2023-09-18T13:35:57;24.20;99.90
31747;DHT22;18319;48.974;8.462;2023-09-18T13:38:24;24.20;99.90
31747;DHT22;18319;48.974;8.462;2023-09-18T13:40:52;24.20;99.90
31747;DHT22;18319;48.974;8.462;2023-09-18T13:43:20;24.30;99.90
31747;DHT22;18319;48.974;8.462;2023-09-18T13:45:49;24.20;99.90
31747;DHT22;18319;48.974;8.462;2023-09-18T13:48:17;24.30;99.90
31747;DHT22;18319;48.974;8.462;2023-09-18T13:50:44;24.70;99.90
31747;DHT22;18319;48.974;8.462;2023-09-18T13:53:12;25.00;99.90
31747;DHT22;18319;48.974;8.462;2023-09-18T13:55:39;25.10;99.90
31747;DHT22;18319;48.974;8.462;2023-09-18T13:58:06;24.60;99.90
31747;DHT22;18319;48.974;8.462;2023-09-18T14:00:33;24.50;99.90
31747;DHT22;18319;48.974;8.462;2023-09-18T14:03:02;24.50;99.90
31747;DHT22;18319;48.974;8.462;2023-09-18T14:05:29;24.40;99.90
31747;DHT22;18319;48.974;8.462;2023-09-18T14:07:58;24.60;99.90
31747;DHT22;18319;48.974;8.462;2023-09-18T14:10:26;24.80;99.90
31747;DHT22;18319;48.974;8.462;2023-09-18T14:12:53;24.80;99.90
31747;DHT22;18319;48.974;8.462;2023-09-18T14:15:20;24.80;99.90
31747;DHT22;18319;48.974;8.462;2023-09-18T14:17:48;24.70;99.90
31747;DHT22;18319;48.974;8.462;2023-09-18T14:20:16;24.50;99.90
31747;DHT22;18319;48.974;8.462;2023-09-18T14:22:45;24.20;99.90
31747;DHT22;18319;48.974;8.462;2023-09-18T14:25:13;24.10;99.90
31747;DHT22;18319;48.974;8.462;2023-09-18T14:27:41;24.00;99.90
31747;DHT22;18319;48.974;8.462;2023-09-18T14:30:08;23.90;99.90
31747;DHT22;18319;48.974;8.462;2023-09-18T14:32:35;23.80;99.90
31747;DHT22;18319;48.974;8.462;2023-09-18T14:35:03;23.80;99.90
31747;DHT22;18319;48.974;8.462;2023-09-18T14:37:32;23.70;99.90
31747;DHT22;18319;48.974;8.462;2023-09-18T14:39:58;23.60;99.90
31747;DHT22;18319;48.974;8.462;2023-09-18T14:42:25;23.60;99.90
31747;DHT22;18319;48.974;8.462;2023-09-18T14:44:52;23.50;99.90
31747;DHT22;18319;48.974;8.462;2023-09-18T14:47:19;23.50;99.90
31747;DHT22;18319;48.974;8.462;2023-09-18T14:49:45;23.40;99.90
31747;DHT22;18319;48.974;8.462;2023-09-18T14:52:13;23.40;99.90
31747;DHT22;18319;48.974;8.462;2023-09-18T14:54:41;23.30;99.90
31747;DHT22;18319;48.974;8.462;2023-09-18T14:57:08;23.10;99.90
31747;DHT22;18319;48.974;8.462;2023-09-18T14:59:35;23.10;99.90
31747;DHT22;18319;48.974;8.462;2023-09-18T15:02:03;23.00;99.90
31747;DHT22;18319;48.974;8.462;2023-09-18T15:04:31;23.00;99.90
31747;DHT22;18319;48.974;8.462;2023-09-18T15:06:58;23.00;99.90
31747;DHT22;18319;48.974;8.462;2023-09-18T15:09:25;23.10;99.90
31747;DHT22;18319;48.974;8.462;2023-09-18T15:11:53;23.10;99.90
31747;DHT22;18319;48.974;8.462;2023-09-18T15:14:19;23.00;99.90
31747;DHT22;18319;48.974;8.462;2023-09-18T15:16:46;22.90;99.90
31747;DHT22;18319;48.974;8.462;2023-09-18T15:19:14;22.80;99.90
31747;DHT22;18319;48.974;8.462;2023-09-18T15:21:42;22.90;99.90
31747;DHT22;18319;48.974;8.462;2023-09-18T15:24:09;22.70;99.90
31747;DHT22;18319;48.974;8.462;2023-09-18T15:26:36;22.60;99.90
31747;DHT22;18319;48.974;8.462;2023-09-18T15:29:04;22.60;99.90
31747;DHT22;18319;48.974;8.462;2023-09-18T15:31:33;22.60;99.90
31747;DHT22;18319;48.974;8.462;2023-09-18T15:34:00;22.40;99.90
31747;DHT22;18319;48.974;8.462;2023-09-18T15:36:27;22.30;99.90